Stations météo

réclame
Mon MeteoGroup
Herwijnen aws, Pays-Bas (6356): Température de l'air & dewpoint: 16.01.2018 21:00:00 - 22.01.2018 21:00:00 (CET)Herwijnen aws, Pays-Bas (6356): Température de l'air 5cm: 16.01.2018 21:00:00 - 22.01.2018 21:00:00 (CET)Herwijnen aws, Pays-Bas (6356): Vitesse du vent & gusts: 16.01.2018 21:00:00 - 22.01.2018 21:00:00 (CET)Herwijnen aws, Pays-Bas (6356): Direction du vent: 16.01.2018 21:00:00 - 22.01.2018 21:00:00 (CET)Herwijnen aws, Pays-Bas (6356): reduced air pressure: 16.01.2018 21:00:00 - 22.01.2018 21:00:00 (CET)Herwijnen aws, Pays-Bas (6356): Quantités de précipitations: 16.01.2018 21:00:00 - 22.01.2018 21:00:00 (CET)
Date & Time tt [°C] td [°C] tt 5cm [°C] ff [km/h] ff [knt] fx [km/h] fx [knt] dd ppp [hPa] rr [mm]
22.01.2018 21:00:00 - - - - - - - - - -
22.01.2018 20:00:00 5,2 3,9 4,3 11 6 25 14 W 1014,7 0,0
22.01.2018 19:00:00 6,8 4,8 6,3 18 10 25 14 W 1014,0 0,0
22.01.2018 18:00:00 6,7 4,9 6,2 14 8 25 14 W 1012,8 0,0
22.01.2018 17:00:00 7,4 5,2 7,0 18 10 25 14 W 1011,7 0,0
22.01.2018 16:00:00 7,9 5,2 7,6 22 12 29 16 WNW 1010,4 0,0
22.01.2018 15:00:00 8,2 5,5 8,1 18 10 32 18 WNW 1009,1 0,0
22.01.2018 14:00:00 8,5 5,5 8,5 18 10 29 16 WNW 1008,4 0,0
22.01.2018 13:00:00 8,2 6,1 8,0 14 8 18 10 W 1008,0 0,0
22.01.2018 12:00:00 7,9 5,5 7,7 14 8 22 12 W 1007,7 0,0
22.01.2018 11:00:00 7,2 5,6 6,9 7 4 18 10 W 1007,1 0,0
22.01.2018 10:00:00 6,7 5,4 6,4 11 6 18 10 W 1006,6 0,0
22.01.2018 09:00:00 6,3 5,3 5,9 14 8 25 14 W 1006,2 0,0
22.01.2018 08:00:00 6,7 5,8 6,2 18 10 25 14 WSW 1005,3 0,0
22.01.2018 07:00:00 6,1 5,9 5,8 18 10 29 16 W 1005,0 0,0
22.01.2018 06:00:00 4,3 4,2 4,0 11 6 22 12 SW 1004,4 0,0
22.01.2018 05:00:00 3,2 3,0 3,1 11 6 18 10 S 1004,8 0,1
22.01.2018 04:00:00 2,7 2,5 2,7 14 8 25 14 SSE 1005,0 0,1
22.01.2018 03:00:00 2,5 2,1 2,4 14 8 29 16 SSE 1005,8 0,1
22.01.2018 02:00:00 2,2 1,7 2,2 18 10 29 16 SE 1006,6 0,1
22.01.2018 01:00:00 2,2 1,5 2,2 22 12 32 18 SE 1007,5 0,4
22.01.2018 00:00:00 2,3 1,3 2,1 18 10 32 18 SE 1008,6 0,5
21.01.2018 23:00:00 2,6 1,6 2,5 22 12 29 16 SE 1010,0 0,6
21.01.2018 22:00:00 3,2 1,7 2,9 22 12 32 18 SSE 1011,3 0,5
21.01.2018 21:00:00 3,7 1,6 3,3 18 10 25 14 SSE 1012,4 0,0
21.01.2018 20:00:00 3,6 2,0 3,1 14 8 22 12 SSE 1013,3 0,0
21.01.2018 19:00:00 3,5 2,0 3,1 14 8 22 12 SSE 1014,1 0,0
21.01.2018 18:00:00 3,6 2,0 3,0 14 8 18 10 SSE 1014,6 0,0
21.01.2018 17:00:00 4,2 2,3 3,6 11 6 14 8 S 1015,0 0,0
21.01.2018 16:00:00 4,8 2,5 4,5 7 4 18 10 SSW 1015,6 0,0
21.01.2018 15:00:00 5,1 2,4 4,9 11 6 18 10 SSW 1015,8 0,0
21.01.2018 14:00:00 5,9 2,2 6,3 11 6 18 10 SW 1016,1 0,0
21.01.2018 13:00:00 5,6 2,3 6,3 11 6 14 8 SW 1016,0 0,0
21.01.2018 12:00:00 4,8 2,0 4,3 11 6 14 8 WSW 1016,1 0,0
21.01.2018 11:00:00 2,4 0,7 1,7 7 4 14 8 W 1015,5 0,0
21.01.2018 10:00:00 1,5 -0,1 0,1 11 6 14 8 WSW 1015,0 0,0
21.01.2018 09:00:00 -0,4 -1,6 -3,0 11 6 14 8 WSW 1014,3 0,0
21.01.2018 08:00:00 -0,6 -1,9 -2,2 11 6 18 10 W 1013,3 0,0
21.01.2018 07:00:00 -0,5 -1,6 -1,6 14 8 18 10 W 1012,3 0,0
21.01.2018 06:00:00 -0,1 -1,2 -1,3 14 8 18 10 W 1011,5 0,0
21.01.2018 05:00:00 -0,5 -1,5 -1,5 11 6 18 10 W 1010,5 0,0
21.01.2018 04:00:00 0,0 -0,9 -1,3 14 8 18 10 W 1009,4 0,0
21.01.2018 03:00:00 0,8 0,0 -0,2 14 8 18 10 W 1008,6 0,0
21.01.2018 02:00:00 0,3 0,0 -0,6 11 6 14 8 W 1007,3 0,0
21.01.2018 01:00:00 1,4 0,9 0,6 7 4 18 10 W 1006,1 0,0
21.01.2018 00:00:00 1,8 1,4 1,2 11 6 14 8 W 1004,8 0,2
20.01.2018 23:00:00 2,5 2,0 2,3 11 6 18 10 WNW 1004,1 0,2
20.01.2018 22:00:00 1,8 1,6 1,2 7 4 11 6 WNW 1003,0 0,0
20.01.2018 21:00:00 1,4 1,3 0,1 4 2 7 4 NW 1002,3 0,0
20.01.2018 20:00:00 1,8 1,8 1,2 4 2 7 4 NNW 1001,3 0,0
20.01.2018 19:00:00 2,5 2,2 2,2 0 0 7 4 N 1000,5 0,2
20.01.2018 18:00:00 2,8 2,3 2,7 7 4 7 4 NNE 1000,2 0,1
20.01.2018 17:00:00 2,9 2,1 2,8 7 4 11 6 SSE 999,8 0,0
20.01.2018 16:00:00 3,3 2,3 3,3 11 6 14 8 SSE 999,5 0,2
20.01.2018 15:00:00 3,6 2,7 3,7 7 4 14 8 S 1000,1 0,1
20.01.2018 14:00:00 3,5 2,6 3,7 11 6 18 10 S 1000,7 0,2
20.01.2018 13:00:00 3,5 2,3 3,5 14 8 22 12 S 1002,0 0,0
20.01.2018 12:00:00 3,3 2,2 3,2 11 6 18 10 S 1003,3 0,0
20.01.2018 11:00:00 2,6 1,8 2,4 11 6 22 12 S 1003,8 0,0
20.01.2018 10:00:00 1,9 1,2 1,4 14 8 22 12 S 1004,6 0,0
20.01.2018 09:00:00 1,3 0,5 0,6 14 8 25 14 S 1005,0 0,0
20.01.2018 08:00:00 1,0 0,2 0,4 18 10 29 16 SSW 1005,4 0,0
20.01.2018 07:00:00 1,0 0,1 0,4 14 8 25 14 S 1005,8 0,0
20.01.2018 06:00:00 1,0 0,2 0,5 18 10 25 14 SSW 1006,0 0,0
20.01.2018 05:00:00 1,3 0,4 0,6 14 8 25 14 S 1006,6 0,0
20.01.2018 04:00:00 1,7 0,6 0,7 14 8 25 14 SSW 1007,2 0,0
20.01.2018 03:00:00 1,5 0,4 0,9 14 8 32 18 SSW 1007,7 0,0
20.01.2018 02:00:00 1,8 0,7 0,9 14 8 25 14 SSW 1007,9 0,0
20.01.2018 01:00:00 1,7 0,6 1,0 18 10 29 16 SSW 1008,1 0,1
20.01.2018 00:00:00 2,6 1,0 2,1 22 12 32 18 SW 1008,3 0,0
19.01.2018 23:00:00 2,2 0,6 1,4 18 10 29 16 SW 1008,2 0,0
19.01.2018 22:00:00 2,4 0,5 1,5 14 8 29 16 SSW 1008,1 0,0
19.01.2018 21:00:00 2,3 0,7 1,4 14 8 22 12 SSW 1008,0 0,0
19.01.2018 20:00:00 2,9 1,2 2,5 22 12 36 19 WSW 1007,9 0,1
19.01.2018 19:00:00 3,2 0,8 2,3 14 8 43 23 SW 1008,1 0,1
19.01.2018 18:00:00 3,5 0,9 2,8 18 10 40 21 WSW 1008,0 0,1
19.01.2018 17:00:00 4,1 1,2 3,3 18 10 32 18 WSW 1007,9 0,0
19.01.2018 16:00:00 5,1 2,0 4,9 25 14 36 19 SW 1007,9 0,0
19.01.2018 15:00:00 4,6 2,6 4,1 18 10 47 25 SSW 1007,9 0,0
19.01.2018 14:00:00 5,9 2,6 6,5 25 14 36 19 SW 1007,8 0,0
19.01.2018 13:00:00 5,4 2,4 5,5 25 14 36 19 SW 1008,0 0,0
19.01.2018 12:00:00 4,7 2,6 4,7 22 12 29 16 SSW 1008,2 0,0
19.01.2018 11:00:00 4,0 2,4 3,4 14 8 22 12 SSW 1008,3 0,0
19.01.2018 10:00:00 3,7 1,9 3,0 18 10 22 12 SW 1007,6 0,0
19.01.2018 09:00:00 3,4 1,9 2,7 14 8 18 10 SW 1007,0 0,0
19.01.2018 08:00:00 3,7 1,7 2,9 14 8 25 14 WSW 1006,4 0,0
19.01.2018 07:00:00 3,6 1,7 3,1 25 14 36 19 W 1005,6 0,0
19.01.2018 06:00:00 3,4 2,3 2,8 14 8 22 12 WSW 1005,1 0,3
19.01.2018 05:00:00 3,0 2,2 2,7 11 6 43 23 WSW 1004,5 1,5
19.01.2018 04:00:00 2,9 2,1 2,7 11 6 29 16 W 1004,2 0,8
19.01.2018 03:00:00 2,3 1,6 1,9 7 4 14 8 WSW 1003,5 0,5
19.01.2018 02:00:00 2,4 2,0 2,0 7 4 11 6 NNW 1003,3 0,7
19.01.2018 01:00:00 1,8 1,4 1,1 7 4 25 14 WSW 1002,8 1,2
19.01.2018 00:00:00 2,1 1,5 1,7 11 6 18 10 W 1002,7 4,3
18.01.2018 23:00:00 3,4 2,6 3,2 7 4 32 18 WSW 1001,9 0,9
18.01.2018 22:00:00 4,2 2,5 3,3 14 8 22 12 SW 1001,7 0,0
18.01.2018 21:00:00 3,8 2,1 2,1 14 8 18 10 SW 1001,6 0,0
18.01.2018 20:00:00 2,5 1,2 0,8 14 8 18 10 SW 1001,5 0,0
18.01.2018 19:00:00 2,1 0,6 -0,2 7 4 11 6 WSW 1001,5 0,0
18.01.2018 18:00:00 2,6 0,7 1,3 11 6 25 14 W 1001,5 0,0
18.01.2018 17:00:00 4,4 1,4 3,7 22 12 32 18 W 1001,3 0,0
18.01.2018 16:00:00 5,2 2,3 4,8 22 12 47 25 W 1000,7 0,0
18.01.2018 15:00:00 5,2 2,1 4,9 32 18 58 31 W 1000,1 0,0
18.01.2018 14:00:00 5,1 3,3 4,6 36 19 68 37 W 999,0 0,9
18.01.2018 13:00:00 6,1 2,8 6,1 43 23 76 41 W 997,6 0,1
18.01.2018 12:00:00 5,9 2,7 5,2 50 27 101 54 WNW 995,2 0,1
18.01.2018 11:00:00 5,9 1,7 5,5 72 39 119 64 W 991,4 0,0
18.01.2018 10:00:00 7,3 1,8 6,8 79 43 115 62 WSW 987,3 0,0
18.01.2018 09:00:00 9,6 4,6 8,9 61 33 104 56 WSW 985,9 0,0
18.01.2018 08:00:00 9,6 6,7 8,3 50 27 83 45 SW 986,3 0,3
18.01.2018 07:00:00 8,4 6,6 7,8 47 25 86 47 SW 986,9 0,1
18.01.2018 06:00:00 5,7 4,9 4,8 32 18 54 29 SSW 989,2 1,5
18.01.2018 05:00:00 3,4 2,7 3,2 29 16 50 27 S 992,8 1,4
18.01.2018 04:00:00 3,7 2,4 3,5 25 14 47 25 S 996,6 1,6
18.01.2018 03:00:00 4,1 1,9 3,7 22 12 32 18 S 1000,0 0,2
18.01.2018 02:00:00 4,5 1,6 4,0 25 14 36 19 SSW 1002,2 0,0
18.01.2018 01:00:00 4,5 1,4 3,7 22 12 32 18 SSW 1004,1 0,0
18.01.2018 00:00:00 4,3 1,5 3,6 22 12 36 19 SW 1005,2 0,2
17.01.2018 23:00:00 4,7 1,1 4,0 22 12 40 21 WSW 1005,7 0,0
17.01.2018 22:00:00 5,3 1,2 4,5 25 14 32 18 WSW 1006,0 0,2
17.01.2018 21:00:00 5,0 1,6 4,3 22 12 36 19 SW 1005,8 0,0
17.01.2018 20:00:00 5,1 1,4 4,0 22 12 36 19 WSW 1006,0 0,1
17.01.2018 19:00:00 5,1 1,3 4,5 22 12 40 21 SW 1005,9 0,0
17.01.2018 18:00:00 5,2 1,3 4,6 22 12 43 23 WSW 1005,8 0,0
17.01.2018 17:00:00 5,3 0,8 4,7 29 16 50 27 W 1005,2 0,0
17.01.2018 16:00:00 5,4 0,6 4,7 32 18 54 29 W 1004,0 0,0
17.01.2018 15:00:00 5,5 0,2 5,0 40 21 61 33 W 1002,7 0,1
17.01.2018 14:00:00 5,2 0,6 4,6 40 21 61 33 W 1001,6 0,0
17.01.2018 13:00:00 5,2 1,0 4,8 40 21 58 31 W 1000,7 0,1
17.01.2018 12:00:00 4,7 1,5 4,0 36 19 58 31 W 1000,0 0,1
17.01.2018 11:00:00 3,5 1,2 3,2 29 16 61 33 W 999,6 0,2
17.01.2018 10:00:00 3,2 0,5 2,7 25 14 40 21 W 998,6 0,0
17.01.2018 09:00:00 2,9 -0,2 1,8 25 14 50 27 W 997,5 0,4
17.01.2018 08:00:00 3,1 -0,9 2,0 29 16 50 27 W 996,3 0,0
17.01.2018 07:00:00 2,0 -0,3 1,6 36 19 61 33 W 995,2 0,1
17.01.2018 06:00:00 2,5 -0,6 1,8 29 16 58 31 W 994,3 0,0
17.01.2018 05:00:00 3,4 -0,6 2,4 29 16 47 25 W 993,3 0,0
17.01.2018 04:00:00 2,8 0,0 2,3 25 14 58 31 W 992,7 0,1
17.01.2018 03:00:00 3,3 0,1 2,6 25 14 36 19 W 992,0 0,0
17.01.2018 02:00:00 3,0 0,7 2,1 18 10 40 21 W 991,4 0,1
17.01.2018 01:00:00 4,4 1,6 3,7 22 12 36 19 WSW 991,5 0,0
17.01.2018 00:00:00 4,0 1,4 3,5 18 10 36 19 SW 991,7 0,0
16.01.2018 23:00:00 4,2 1,0 3,3 22 12 32 18 SW 991,7 0,0
16.01.2018 22:00:00 3,0 0,9 1,9 7 4 40 21 SSW 992,4 0,4
16.01.2018 21:00:00 2,9 0,5 2,1 18 10 54 29 SW 992,9 0,1

tt = Température de l'air
td = dewpoint
tt 5cm = Température de l'air 5cm
ff = Vitesse du vent
fx = gusts
dd = Direction du vent
ppp = reduced air pressure
rr = Quantités de précipitations

stations d'obs. à proximité